Impacts METAR Board
IDs:

KPHX - Phoenix/Sky Harbor, AZ, US

Updated at: 1200 UTC 27 Feb 2021
Potential Impact None Slight Moderate High
Time 27/00Z 27/01Z 27/02Z 27/03Z 27/04Z 27/05Z 27/06Z 27/07Z 27/08Z 27/09Z 27/10Z 27/11Z 27/12Z
Temp70 69 67 62 61 57 56 54 53 50 50 48 48
Dewpt11 12 10 16 18 18 19 18 18 20 18 19 20
Altim29.86 29.85 29.85 29.85 29.85 29.84 29.84 29.84 29.84 29.86 29.84 29.83 29.83
VIS10 10 10 10 10 10 10 10 10 10 10 10 10
CIG-- -- -- -- -- -- -- -- -- -- -- -- --
CoverFEWFEWFEWFEWFEWFEWFEWFEWSCTFEWFEWFEWCLR
FltCatVFRVFRVFRVFRVFRVFRVFRVFRVFRVFRVFRVFRVFR
WX--------------------------
WDir35026030021009012090110808080110
WSpd5 7 8 5 0 5 7 8 10 7 6 8 9
WGst-- -- -- -- -- -- -- -- -- -- -- -- --
Raw hourly METARs
KPHX 262351Z 35005KT 10SM FEW230 FEW250 21/M12 A2986 RMK AO2 SLP102 T02111117 10211 20150 56028
KPHX 270051Z 26007KT 10SM FEW230 FEW250 21/M11 A2985 RMK AO2 SLP100 T02061111
KPHX 270151Z 30008KT 10SM FEW230 FEW250 19/M12 A2985 RMK AO2 SLP101 T01941122
KPHX 270251Z 21005KT 10SM FEW230 17/M09 A2985 RMK AO2 SLP102 T01671089 55001
KPHX 270351Z 00000KT 10SM FEW230 16/M08 A2985 RMK AO2 SLP100 T01611078
KPHX 270451Z 09005KT 10SM FEW230 14/M08 A2984 RMK AO2 SLP099 T01391078
KPHX 270551Z 12007KT 10SM FEW230 13/M07 A2984 RMK AO2 SLP098 T01331072 10211 20133 55003
KPHX 270651Z 09008KT 10SM FEW250 12/M08 A2984 RMK AO2 SLP095 T01221078 402110072
KPHX 270751Z 11010KT 10SM SCT250 12/M08 A2984 RMK AO2 SLP095 T01171078
KPHX 270851Z 08007KT 10SM FEW250 10/M07 A2986 RMK AO2 SLP104 T01001067 53005
KPHX 270951Z 08006KT 10SM FEW250 10/M08 A2984 RMK AO2 SLP095 T01001078
KPHX 271051Z 08008KT 10SM FEW250 09/M07 A2983 RMK AO2 SLP094 T00891072 $
KPHX 271151Z 11009KT 10SM CLR 09/M07 A2983 RMK AO2 SLP092 T00891067 10144 20083 56011 $



Page loaded:  12:41 UTC  |   04:41 AM Pacific  |   05:41 AM Mountain  |   06:41 AM Central  |   07:41 AM Eastern

 

ADVISORIES

FORECASTS

FORECASTS

OBSERVATIONS

USER TOOLS

ABOUT US